Current Conditions

Updated: 28-Sep-2016 10:01 AM  
Summary / Temperature Wind Rain






Feels like: 77°F

1-hour difference
8.7°F 8.7°F warmer than last hour.

24-hour difference
5.1°F5.1°F colder than yesterday at this time.

  Today Yesterday
High: 74.8°F
9:58 AM
101.0°F
4:07 PM
Low: 59.9°F
7:13 AM
59.7°F
7:05 AM
Calm NW
0.0
Gust:  0.0 mph
0 Beaufort - Calm

Today: 1.2 - 12:19 PM
Month: 9.2 mph - Sep 16
Rain Today: 0.00 in
Current Rate (/hr): 0.000 in
Max Rate (/hr):
Rain Yesterday: 0.00 in
Storm Rain: 0.00 in
This Month: 0.00 in
Season Total: 0.00 in
Last Rain Event: 108 days ago
Humidity / Barometer Sun / Moon
Humidity: 38 Decreased 17.0% in the last hour.
Dew Point: 47.5°F Decreased 1.7°F in the last hour.
Barometer: 29.848 inHg  
Baro Trend: Steady
Sunrise: 6:49 AM
Sunset: 6:44 PM
Moonrise: 4:34 AM
Moonset: 5:03 PM
Sky Conditions UV Index
Summary: Clear
Visibility: 10 miles
Clouds: None
KPTV - 9:56 AM PDT
Current: 4.0  Moderate 
Wednesday: 6.7  High 
Thursday: 6.7  High 
Air Quality Fire Danger
 Moderate 
Ozone 27 ppb
PM 2.5 14 μg/m3
10:00 AM PDT
Current: 39  Low 

Local Alerts Local Forecast
Local NWS Alerts
Today

Mostly
Sunny
High 97
Tonight

Partly
Cloudy
Low 64
Thu

Mostly
Sunny
High 93
Thu night

Mostly
Clear
Low 61
Fri

Sunny

High 90
Fri night

Clear

Low 54
Sat

Sunny

High 77

Local Radar Local Satellite Neighborhood Cam Sky Cam
Local Radar Local Satellite Neighborhood Cam Sky Cam


Nearby Personal Stations

Weather Underground PWS KCAPORTE11     Weather Underground PWS KCAPORTE8

Nearby Airport Stations

KPTV - Porterville, California, USA
Distance from station: SSW 4mi, 7km
Updated: Wed, 28-Sep-2016 8:56am PDT
Clear
Clear
 Wind from S
Wind: S 5 mph , 7 km/h
Temperature: 68°F , 20°C
Dew Point: 46°F , 8°C
Humidity: 46%
Barometer: 29.91 inHg , 1012.9 hPa
Clouds: Clear
Visibility: 10 miles , 16 km
2016/09/28 15:56 KPTV 281556Z AUTO 19004KT 10SM CLR 20/08 A2991 RMK AO2 SLP134 T02000078
KVIS - Visalia, California, USA
Distance from station: NW 27mi, 43km
Updated: Wed, 28-Sep-2016 8:56am PDT
Clear
Clear
 Wind from SSE
Wind: SSE 7 mph , 11 km/h
Temperature: 72°F , 22°C
Dew Point: 48°F , 9°C
Humidity: 44%
Barometer: 29.90 inHg , 1012.5 hPa
Clouds: Clear
Visibility: 8 miles , 13 km
2016/09/28 15:56 KVIS 281556Z AUTO 15006KT 8SM CLR 22/09 A2990 RMK AO2 SLP128 T02220089 TSNO

Metar display script from Saratoga-Weather.org



Visitor Map